createdAt,value
2018-06-14T00:00:45.232Z,0.90
2018-06-14T00:03:24.146Z,1.17
2018-06-14T00:05:58.435Z,0.90
2018-06-14T00:08:33.907Z,0.90
2018-06-14T00:11:13.324Z,0.70
2018-06-14T00:13:47.647Z,0.80
2018-06-14T00:16:21.911Z,0.73
2018-06-14T00:18:56.112Z,1.03
2018-06-14T00:21:30.365Z,0.97
2018-06-14T00:24:04.546Z,0.90
2018-06-14T00:26:38.747Z,0.97
2018-06-14T00:29:12.887Z,0.87
2018-06-14T00:31:49.198Z,0.87
2018-06-14T00:34:27.391Z,0.83
2018-06-14T00:37:01.770Z,0.87
2018-06-14T00:39:38.112Z,0.70
2018-06-14T00:42:17.129Z,0.80
2018-06-14T00:45:04.614Z,0.70
2018-06-14T00:48:18.446Z,0.70
2018-06-14T00:50:58.720Z,0.80
2018-06-14T00:53:32.917Z,0.70
2018-06-14T00:56:12.997Z,0.90
2018-06-14T00:58:47.279Z,0.70
2018-06-14T01:01:23.955Z,0.70
2018-06-14T01:10:48.965Z,0.83
2018-06-14T01:13:43.028Z,0.93
2018-06-14T01:19:57.447Z,1.00
2018-06-14T01:23:18.310Z,0.83
2018-06-14T01:26:23.219Z,0.90
2018-06-14T01:29:25.500Z,0.80
2018-06-14T01:32:26.585Z,0.77
2018-06-14T01:35:34.014Z,0.70
2018-06-14T01:45:05.970Z,0.73
2018-06-14T01:48:07.469Z,0.80
2018-06-14T01:51:07.779Z,0.67
2018-06-14T01:54:02.375Z,0.90
2018-06-14T02:24:32.984Z,1.30
2018-06-14T02:27:36.387Z,1.20
2018-06-14T02:30:33.941Z,0.90
2018-06-14T02:33:28.545Z,1.00
2018-06-14T02:36:24.484Z,0.87
2018-06-14T02:39:17.013Z,1.03
2018-06-14T02:48:13.924Z,0.90
2018-06-14T02:51:09.902Z,0.80
2018-06-14T02:54:09.354Z,1.00
2018-06-14T02:57:08.325Z,1.17
2018-06-14T03:00:03.209Z,1.00
2018-06-14T03:09:40.015Z,1.33
2018-06-14T03:15:43.000Z,1.20
2018-06-14T03:18:41.730Z,1.27
2018-06-14T03:22:06.083Z,0.97
2018-06-14T03:25:01.771Z,1.40
2018-06-14T03:28:02.114Z,1.00
2018-06-14T03:34:12.472Z,1.00
2018-06-14T03:37:21.274Z,1.07
2018-06-14T03:46:27.021Z,1.10
2018-06-14T03:49:19.891Z,1.37
2018-06-14T03:52:17.346Z,1.03
2018-06-14T03:55:15.253Z,1.20
2018-06-14T04:01:18.645Z,1.40
2018-06-14T04:10:13.180Z,1.73
2018-06-14T04:13:12.988Z,1.27
2018-06-14T04:16:07.412Z,1.67
2018-06-14T04:24:58.099Z,2.03
2018-06-14T04:28:00.686Z,1.63
2018-06-14T04:33:49.431Z,1.70
2018-06-14T04:36:27.442Z,1.50
2018-06-14T04:39:01.613Z,1.90
2018-06-14T04:41:35.943Z,1.30
2018-06-14T04:44:10.122Z,1.70
2018-06-14T04:46:44.327Z,1.77
2018-06-14T04:49:18.447Z,1.20
2018-06-14T04:51:52.648Z,1.60
2018-06-14T04:54:26.795Z,1.30
2018-06-14T04:57:01.010Z,1.20
2018-06-14T04:59:35.661Z,1.77
2018-06-14T05:02:10.434Z,1.27
2018-06-14T05:04:45.198Z,1.50
2018-06-14T05:07:19.961Z,1.30
2018-06-14T05:09:54.682Z,1.40
2018-06-14T05:12:29.428Z,1.90
2018-06-14T05:15:04.168Z,1.70
2018-06-14T05:17:38.963Z,1.50
2018-06-14T05:20:13.680Z,1.32
2018-06-14T05:22:48.873Z,1.67
2018-06-14T05:25:23.029Z,1.85
2018-06-14T05:27:58.253Z,1.85
2018-06-14T05:30:32.951Z,1.65
2018-06-14T05:33:08.667Z,1.87
2018-06-14T05:35:42.807Z,1.82
2018-06-14T05:38:16.552Z,2.00
2018-06-14T05:40:52.417Z,1.80
2018-06-14T05:43:28.226Z,2.27
2018-06-14T05:46:03.947Z,1.87
2018-06-14T05:48:38.667Z,1.70
2018-06-14T05:51:14.381Z,1.62
2018-06-14T05:53:49.544Z,1.50
2018-06-14T05:56:24.255Z,1.50
2018-06-14T05:59:00.015Z,1.50
2018-06-14T06:01:34.191Z,1.53
2018-06-14T06:04:08.341Z,1.23
2018-06-14T06:06:42.505Z,1.30
2018-06-14T06:09:16.706Z,1.27
2018-06-14T06:11:50.365Z,1.10
2018-06-14T06:14:25.114Z,1.42
2018-06-14T06:16:59.264Z,1.37
2018-06-14T06:19:34.035Z,1.47
2018-06-14T06:22:08.731Z,1.42
2018-06-14T06:24:43.482Z,1.40
2018-06-14T06:27:18.223Z,1.60
2018-06-14T06:29:53.263Z,1.25
2018-06-14T06:32:27.999Z,1.50
2018-06-14T06:35:03.123Z,1.25
2018-06-14T06:37:37.811Z,1.37
2018-06-14T06:40:13.564Z,1.30
2018-06-14T06:42:47.748Z,1.20
2018-06-14T06:45:22.487Z,1.60
2018-06-14T06:47:57.367Z,1.60
2018-06-14T06:50:32.121Z,1.50
2018-06-14T06:53:07.002Z,1.50
2018-06-14T06:55:41.715Z,1.72
2018-06-14T06:58:15.941Z,1.40
2018-06-14T07:00:50.691Z,1.50
2018-06-14T07:03:25.395Z,1.55
2018-06-14T07:06:00.159Z,1.52
2018-06-14T07:08:36.054Z,1.50
2018-06-14T07:11:10.798Z,1.42
2018-06-14T07:13:46.538Z,1.95
2018-06-14T07:16:20.820Z,1.70
2018-06-14T07:18:55.494Z,2.10
2018-06-14T07:21:31.324Z,1.80
2018-06-14T07:24:05.856Z,2.40
2018-06-14T07:26:41.616Z,2.42
2018-06-14T07:29:16.378Z,2.50
2018-06-14T07:31:51.147Z,1.98
2018-06-14T07:34:25.361Z,2.45
2018-06-14T07:36:59.615Z,2.22
2018-06-14T07:39:34.323Z,1.90
2018-06-14T07:42:09.077Z,2.35
2018-06-14T07:44:44.047Z,2.60
2018-06-14T07:47:20.264Z,2.30
2018-06-14T07:49:54.959Z,2.40
2018-06-14T07:52:29.660Z,2.40
2018-06-14T07:55:04.419Z,2.80
2018-06-14T07:57:40.183Z,2.60
2018-06-14T08:00:15.236Z,2.87
2018-06-14T08:02:49.992Z,2.60
2018-06-14T08:05:24.686Z,2.75
2018-06-14T08:07:59.429Z,2.90
2018-06-14T08:10:34.142Z,3.02
2018-06-14T08:13:09.114Z,3.30
2018-06-14T08:15:43.378Z,3.40
2018-06-14T08:18:19.087Z,3.52
2018-06-14T08:20:53.811Z,3.20
2018-06-14T08:23:28.536Z,2.87
2018-06-14T08:26:02.754Z,2.70
2018-06-14T08:28:40.415Z,2.50
2018-06-14T08:31:15.182Z,2.72
2018-06-14T08:33:51.575Z,2.67
2018-06-14T08:36:27.418Z,2.35
2018-06-14T08:39:09.250Z,3.08
2018-06-14T08:41:44.052Z,2.70
2018-06-14T08:44:18.885Z,2.85
2018-06-14T08:46:56.042Z,2.52
2018-06-14T08:49:33.881Z,2.52
2018-06-14T08:52:14.142Z,2.87
2018-06-14T08:54:52.260Z,2.45
2018-06-14T08:57:30.662Z,2.37
2018-06-14T09:00:05.851Z,2.30
2018-06-14T09:02:43.024Z,2.80
2018-06-14T09:05:21.461Z,2.80
2018-06-14T09:07:58.806Z,2.90
2018-06-14T09:10:36.788Z,3.00
2018-06-14T09:13:14.026Z,3.02
2018-06-14T09:15:55.321Z,2.80
2018-06-14T09:18:36.495Z,2.87
2018-06-14T09:21:30.193Z,2.67
2018-06-14T09:24:15.979Z,2.12
2018-06-14T09:26:56.500Z,2.98
2018-06-14T09:29:39.302Z,3.00
2018-06-14T09:32:32.396Z,2.35
2018-06-14T09:35:20.731Z,2.60
2018-06-14T09:38:06.235Z,2.65
2018-06-14T09:40:47.266Z,2.35
2018-06-14T09:43:31.088Z,2.70
2018-06-14T09:46:11.326Z,2.70
2018-06-14T09:48:52.106Z,3.27
2018-06-14T09:54:18.028Z,3.58
2018-06-14T09:56:54.016Z,3.02
2018-06-14T09:59:28.806Z,2.58
2018-06-14T10:02:04.567Z,3.72
2018-06-14T10:04:40.357Z,3.70
2018-06-14T10:07:15.088Z,3.35
2018-06-14T10:09:49.768Z,3.47
2018-06-14T10:12:24.103Z,3.72
2018-06-14T10:14:59.231Z,4.03
2018-06-14T10:17:40.192Z,4.00
2018-06-14T10:20:14.903Z,4.05
2018-06-14T10:22:50.750Z,3.77
2018-06-14T10:25:25.403Z,3.87
2018-06-14T10:28:00.134Z,3.67
2018-06-14T10:30:34.892Z,3.50
2018-06-14T10:33:09.692Z,3.40
2018-06-14T10:35:44.444Z,3.90
2018-06-14T10:38:19.199Z,3.90
2018-06-14T10:40:53.965Z,3.87
2018-06-14T10:43:29.716Z,4.17
2018-06-14T10:46:04.659Z,5.28
2018-06-14T10:48:39.323Z,4.12
2018-06-14T10:51:14.031Z,3.72
2018-06-14T10:53:48.705Z,3.72
2018-06-14T10:56:23.592Z,3.58
2018-06-14T10:58:58.324Z,4.03
2018-06-14T11:01:33.083Z,3.77
2018-06-14T11:04:07.769Z,4.00
2018-06-14T11:06:42.463Z,4.40
2018-06-14T11:09:17.192Z,3.33
2018-06-14T11:11:51.911Z,3.98
2018-06-14T11:14:26.614Z,4.03
2018-06-14T11:17:00.894Z,4.08
2018-06-14T11:19:36.626Z,4.12
2018-06-14T11:22:11.328Z,3.83
2018-06-14T11:24:47.048Z,4.05
2018-06-14T11:27:21.818Z,4.00
2018-06-14T11:29:56.573Z,3.50
2018-06-14T11:32:31.324Z,4.03
2018-06-14T11:35:06.212Z,3.85
2018-06-14T11:37:40.959Z,3.50
2018-06-14T11:40:15.648Z,3.50
2018-06-14T11:42:50.397Z,3.87
2018-06-14T11:45:25.065Z,3.37
2018-06-14T11:47:59.335Z,4.28
2018-06-14T11:50:34.077Z,3.58
2018-06-14T11:53:08.801Z,3.62
2018-06-14T11:55:44.510Z,3.42
2018-06-14T11:58:19.263Z,4.37
2018-06-14T12:00:53.959Z,3.40
2018-06-14T12:03:29.731Z,3.80
2018-06-14T12:06:04.400Z,3.22
2018-06-14T12:08:39.150Z,3.05
2018-06-14T12:11:13.863Z,3.80
2018-06-14T12:13:48.119Z,3.30
2018-06-14T12:16:22.875Z,3.92
2018-06-14T12:18:57.636Z,3.83
2018-06-14T12:21:31.854Z,3.92
2018-06-14T12:24:06.593Z,3.67
2018-06-14T12:26:41.486Z,3.95
2018-06-14T12:29:16.188Z,3.50
2018-06-14T12:31:50.904Z,3.52
2018-06-14T12:34:25.655Z,3.40
2018-06-14T12:37:00.400Z,3.72
2018-06-14T12:39:36.120Z,3.10
2018-06-14T12:42:10.858Z,3.00
2018-06-14T12:44:45.599Z,2.67
2018-06-14T12:47:20.302Z,2.50
2018-06-14T12:49:55.047Z,3.40
2018-06-14T12:52:29.744Z,3.33
2018-06-14T12:55:05.863Z,3.80
2018-06-14T12:57:40.589Z,3.80
2018-06-14T13:00:15.324Z,3.10
2018-06-14T13:02:50.008Z,3.05
2018-06-14T13:05:24.744Z,2.85
2018-06-14T13:07:58.968Z,3.27
2018-06-14T13:10:33.695Z,3.37
2018-06-14T13:13:08.430Z,3.10
2018-06-14T13:15:43.195Z,2.92
2018-06-14T13:18:18.038Z,2.90
2018-06-14T13:20:52.755Z,3.58
2018-06-14T13:23:27.435Z,3.15
2018-06-14T13:26:02.224Z,3.33
2018-06-14T13:28:36.939Z,2.80
2018-06-14T13:31:11.661Z,2.85
2018-06-14T13:33:46.357Z,3.40
2018-06-14T13:36:22.126Z,2.90
2018-06-14T13:38:56.834Z,2.58
2018-06-14T13:41:31.511Z,3.15
2018-06-14T13:44:05.778Z,3.00
2018-06-14T13:46:41.960Z,3.05
2018-06-14T13:49:16.702Z,2.90
2018-06-14T13:51:51.652Z,2.67
2018-06-14T13:54:25.853Z,3.00
2018-06-14T13:57:01.649Z,3.33
2018-06-14T13:59:36.484Z,3.00
2018-06-14T14:02:11.235Z,3.12
2018-06-14T14:04:45.927Z,3.30
2018-06-14T14:07:26.694Z,3.12
2018-06-14T14:10:01.534Z,2.70
2018-06-14T14:12:37.317Z,2.92
2018-06-14T14:15:12.018Z,2.45
2018-06-14T14:17:46.737Z,3.20
2018-06-14T14:20:21.472Z,2.75
2018-06-14T14:22:56.212Z,2.72
2018-06-14T14:25:30.978Z,2.47
2018-06-14T14:28:06.748Z,2.52
2018-06-14T14:30:41.442Z,3.47
2018-06-14T14:33:17.180Z,3.35
2018-06-14T14:35:52.877Z,3.27
2018-06-14T14:38:27.615Z,3.22
2018-06-14T14:41:03.334Z,2.80
2018-06-14T14:43:39.140Z,2.52
2018-06-14T14:46:14.894Z,2.87
2018-06-14T14:48:49.604Z,2.45
2018-06-14T14:51:24.314Z,2.22
2018-06-14T14:53:59.104Z,2.72
2018-06-14T14:56:33.345Z,2.45
2018-06-14T14:59:09.100Z,2.65
2018-06-14T15:01:43.767Z,2.42
2018-06-14T15:04:19.507Z,2.50
2018-06-14T15:06:54.236Z,2.52
2018-06-14T15:09:30.028Z,2.42
2018-06-14T15:12:04.791Z,2.40
2018-06-14T15:14:39.756Z,2.42
2018-06-14T15:17:14.444Z,2.42
2018-06-14T15:19:49.272Z,2.37
2018-06-14T15:22:24.118Z,2.12
2018-06-14T15:24:58.854Z,2.77
2018-06-14T15:27:33.531Z,2.60
2018-06-14T15:30:08.276Z,2.58
2018-06-14T15:32:43.979Z,2.65
2018-06-14T15:35:18.715Z,2.65
2018-06-14T15:37:52.913Z,2.75
2018-06-14T15:40:28.688Z,2.30
2018-06-14T15:43:03.399Z,2.25
2018-06-14T15:45:37.667Z,3.08
2018-06-14T15:48:12.403Z,2.67
2018-06-14T15:50:48.161Z,2.52
2018-06-14T15:53:23.932Z,2.62
2018-06-14T15:56:18.456Z,3.40
2018-06-14T15:58:53.167Z,2.80
2018-06-14T16:01:27.899Z,2.58
2018-06-14T16:04:03.064Z,2.45
2018-06-14T16:06:38.204Z,2.45
2018-06-14T16:09:13.973Z,2.65
2018-06-14T16:11:48.691Z,2.20
2018-06-14T16:14:23.465Z,2.80
2018-06-14T16:16:57.728Z,2.58
2018-06-14T16:19:32.442Z,2.42
2018-06-14T16:22:07.156Z,2.33
2018-06-14T16:24:41.906Z,2.77
2018-06-14T16:27:16.628Z,2.15
2018-06-14T16:29:51.354Z,2.58
2018-06-14T16:32:26.098Z,2.58
2018-06-14T16:35:01.929Z,2.62
2018-06-14T16:37:36.658Z,2.40
2018-06-14T16:40:11.376Z,2.65
2018-06-14T16:42:46.057Z,2.33
2018-06-14T16:45:20.273Z,2.30
2018-06-14T16:47:54.952Z,2.62
2018-06-14T16:50:29.760Z,2.72
2018-06-14T16:53:04.569Z,2.50
2018-06-14T16:55:40.352Z,2.30
2018-06-14T16:58:15.132Z,2.90
2018-06-14T17:00:49.354Z,2.60
2018-06-14T17:03:24.112Z,2.83
2018-06-14T17:05:59.863Z,2.92
2018-06-14T17:08:34.579Z,2.77
2018-06-14T17:11:09.279Z,2.60
2018-06-14T17:13:43.549Z,3.12
2018-06-14T17:16:19.240Z,2.45
2018-06-14T17:18:53.497Z,2.62
2018-06-14T17:21:28.388Z,2.70
2018-06-14T17:24:03.088Z,2.77
2018-06-14T17:26:37.798Z,3.12
2018-06-14T17:29:12.518Z,2.60
2018-06-14T17:31:47.229Z,2.65
2018-06-14T17:34:21.939Z,2.52
2018-06-14T17:36:56.680Z,2.30
2018-06-14T17:39:31.804Z,2.52
2018-06-14T17:42:07.757Z,2.60
2018-06-14T17:44:42.510Z,2.65
2018-06-14T17:47:17.260Z,2.45
2018-06-14T17:49:51.990Z,2.77
2018-06-14T17:52:26.686Z,2.55
2018-06-14T17:55:01.448Z,4.17
2018-06-14T17:57:36.165Z,3.65
2018-06-14T18:00:11.000Z,2.75
2018-06-14T18:02:45.233Z,2.65
2018-06-14T18:05:27.586Z,3.00
2018-06-14T18:08:02.398Z,2.92
2018-06-14T18:10:37.155Z,2.55
2018-06-14T18:13:11.893Z,2.70
2018-06-14T18:15:46.607Z,2.67
2018-06-14T18:18:21.292Z,2.65
2018-06-14T18:20:56.026Z,2.92
2018-06-14T18:23:31.751Z,2.42
2018-06-14T18:26:06.455Z,2.60
2018-06-14T18:28:41.697Z,2.98
2018-06-14T18:31:15.968Z,3.10
2018-06-14T18:33:50.648Z,2.72
2018-06-14T18:36:26.358Z,2.65
2018-06-14T18:39:01.011Z,2.95
2018-06-14T18:41:35.246Z,3.25
2018-06-14T18:44:10.005Z,3.58
2018-06-14T18:46:44.962Z,3.33
2018-06-14T18:49:25.369Z,3.12
2018-06-14T18:52:03.144Z,3.30
2018-06-14T18:54:38.975Z,3.27
2018-06-14T18:57:13.763Z,3.37
2018-06-14T18:59:48.523Z,2.90
2018-06-14T19:02:24.211Z,3.05
2018-06-14T19:04:59.014Z,2.90
2018-06-14T19:07:33.218Z,2.80
2018-06-14T19:10:08.964Z,3.40
2018-06-14T19:12:44.696Z,3.50
2018-06-14T19:15:20.731Z,3.30
2018-06-14T19:17:55.780Z,3.02
2018-06-14T19:20:30.892Z,3.22
2018-06-14T19:23:06.664Z,3.30
2018-06-14T19:25:42.403Z,3.30
2018-06-14T19:28:18.166Z,3.40
2018-06-14T19:30:52.857Z,3.72
2018-06-14T19:33:27.587Z,3.27
2018-06-14T19:36:02.696Z,7.28
2018-06-14T19:38:37.391Z,12.45
2018-06-14T19:41:12.134Z,17.00
2018-06-14T19:43:46.842Z,18.02
2018-06-14T19:46:22.617Z,18.57
2018-06-14T19:52:16.071Z,19.52
2018-06-14T19:54:50.840Z,20.95
2018-06-14T19:57:25.802Z,22.05
2018-06-14T20:00:00.563Z,23.83
2018-06-14T20:02:35.378Z,21.48
2018-06-14T20:05:10.063Z,22.87
2018-06-14T20:07:44.845Z,23.22
2018-06-14T20:10:21.554Z,24.63
2018-06-14T20:13:06.046Z,25.23
2018-06-14T20:15:51.429Z,23.15
2018-06-14T20:18:34.119Z,23.67
2018-06-14T20:21:16.714Z,23.80
2018-06-14T20:23:52.466Z,24.60
2018-06-14T20:26:32.226Z,24.12
2018-06-14T20:29:13.589Z,23.67
2018-06-14T20:31:56.873Z,24.02
2018-06-14T20:34:35.810Z,23.15
2018-06-14T20:37:11.907Z,24.15
2018-06-14T20:39:50.392Z,25.17
2018-06-14T20:42:28.614Z,24.15
2018-06-14T20:45:05.657Z,24.43
2018-06-14T20:47:44.665Z,25.45
2018-06-14T20:50:25.151Z,25.50
2018-06-14T20:53:03.882Z,25.52
2018-06-14T20:55:55.451Z,25.23
2018-06-14T20:58:35.739Z,26.00
2018-06-14T21:01:13.308Z,21.68
2018-06-14T21:03:48.132Z,26.93
2018-06-14T21:06:27.366Z,25.25
2018-06-14T21:09:10.399Z,26.23
2018-06-14T21:11:48.069Z,26.57
2018-06-14T21:14:26.498Z,27.25
2018-06-14T21:17:13.142Z,27.27
2018-06-14T21:20:10.425Z,27.07
2018-06-14T21:28:28.877Z,30.68
2018-06-14T21:31:14.152Z,29.67
2018-06-14T21:34:10.267Z,29.92
2018-06-14T21:36:58.133Z,29.42
2018-06-14T21:39:43.670Z,28.52
2018-06-14T21:42:26.397Z,28.75
2018-06-14T21:48:14.508Z,28.20
2018-06-14T21:53:58.713Z,25.60
2018-06-14T21:56:43.491Z,26.42
2018-06-14T21:59:35.012Z,25.97
2018-06-14T22:02:24.997Z,25.37
2018-06-14T22:05:07.916Z,25.08
2018-06-14T22:07:47.621Z,25.30
2018-06-14T22:13:11.136Z,25.72
2018-06-14T22:15:46.662Z,25.92
2018-06-14T22:18:22.230Z,26.75
2018-06-14T22:21:02.019Z,25.05
2018-06-14T22:23:59.615Z,24.70
2018-06-14T22:26:35.352Z,24.72
2018-06-14T22:29:10.168Z,25.37
2018-06-14T22:31:45.883Z,23.30
2018-06-14T22:34:31.073Z,22.45
2018-06-14T22:37:19.977Z,23.87
2018-06-14T22:39:56.508Z,23.47
2018-06-14T22:42:34.477Z,22.37
2018-06-14T22:45:13.953Z,21.52
2018-06-14T22:47:49.752Z,20.32
2018-06-14T22:50:39.123Z,22.55
2018-06-14T22:53:13.854Z,23.25
2018-06-14T22:55:51.626Z,23.20
2018-06-14T22:58:25.989Z,23.98
2018-06-14T23:02:03.454Z,22.73
2018-06-14T23:04:38.988Z,23.15
2018-06-14T23:07:23.520Z,22.58
2018-06-14T23:10:20.507Z,22.45
2018-06-14T23:12:55.370Z,23.80
2018-06-14T23:15:32.064Z,24.60
2018-06-14T23:18:06.828Z,25.17
2018-06-14T23:20:53.526Z,26.12
2018-06-14T23:23:27.813Z,27.57
2018-06-14T23:26:06.403Z,27.30
2018-06-14T23:28:41.938Z,27.52
2018-06-14T23:31:17.495Z,27.90
2018-06-14T23:33:53.238Z,28.07
2018-06-14T23:36:27.584Z,28.77
2018-06-14T23:39:02.816Z,27.60
2018-06-14T23:41:37.045Z,27.67
2018-06-14T23:44:11.857Z,27.00
2018-06-14T23:46:47.036Z,28.17
2018-06-14T23:49:21.900Z,28.12
2018-06-14T23:51:56.621Z,27.95
2018-06-14T23:54:30.866Z,27.63
2018-06-14T23:57:06.047Z,26.70
2018-06-14T23:59:40.788Z,25.88
